x

Ilm2 - 5 Miles Se Of Wrightsville Beach, Nc (41038) Weather Station

6:08 - Thu 27th Apr 2017 All times are EDT. -4 hours from GMT.

  • Wind
    4mph, 9mph gusts
  • Sea Temp 70°f
  • Ar Temp 70°f
  • Sea Pressure 1012.6mb
  • Ilm2 - 5 Miles Se Of Wrightsville Beach, Nc
  • Ilm2 - 5 Miles Se Of Wrightsville Beach, Nc

More Historic Weather Station data

Upgrade to MSW Pro to gain access to the past 30 days of data for over 8000 Wavebouys and Weather Stations around the globe.

Join Pro

Comparision Forecast

View Surf forecast
   
Qui 04/27 6:08 4 9 mph 1012.6mb 70f 70f
5:08 4 7 mph 1012.3mb 70f 70f
4:08 7 11 mph 1011.9mb 70f 70f
3:08 11 13 mph 1012mb 70f 70f
2:08  -  mph 1012.1mb 70f 71f
1:08 13 18 mph 1012.2mb 70f 71f
12:08 13 18 mph 1011.8mb 70f 71f
Qua 04/26 11:08 11 20 mph 1011.7mb 70f 71f
10:08 11 18 mph 1011.5mb 70f 71f
9:08 11 18 mph 1011mb 70f 71f
8:08 11 18 mph 1010.6mb 70f 71f
7:08 7 13 mph 1010.3mb 71f 71f
6:08 11 16 mph 1010.1mb 71f 71f
5:08 11 20 mph 1009.7mb 71f 71f
4:08 11 20 mph 1009.7mb 71f 71f
3:08 13 20 mph 1009.5mb 71f 71f
2:08 9 11 mph 1010.4mb 71f 71f
1:08 13 18 mph 1011mb 71f 69f
12:08 4 9 mph 1011.5mb 70f 70f
11:08 9 11 mph 1011.4mb 70f 68f
10:08 7 11 mph 1010.8mb 70f 67f
9:08 7 11 mph 1010.1mb 69f 65f
8:08 7 11 mph 1009.6mb 69f 64f
7:08 9 16 mph 1008.7mb 69f 64f
6:08 13 22 mph 1007.8mb 69f 63f
5:08 16 20 mph 1007.6mb 70f 64f
4:08 13 20 mph 1007.3mb 70f 64f
3:08 16 20 mph 1007.4mb 70f 64f
2:08 16 20 mph 1007.3mb 70f 64f
1:08 18 22 mph 1007.4mb 70f 64f
12:08 16 22 mph 1007.2mb 70f 64f
Ter 04/25 11:08 18 25 mph 1007.1mb 70f 64f
10:08 16 22 mph 1006.7mb 70f 65f
9:08 13 20 mph 1006mb 70f 66f
8:08 18 25 mph 1005.2mb 70f 67f
7:08 18 29 mph 1004.3mb 70f 67f
6:08 18 25 mph 1003.2mb 70f 68f
5:08 18 27 mph 1003.1mb 70f 68f
4:08 18 31 mph 1003mb 70f 68f
3:08 13 20 mph 1003mb 70f 69f
2:08 11 16 mph 1003.3mb 70f 69f
1:08 11 18 mph 1003.1mb 69f 68f
12:08 13 18 mph 1003.2mb 69f 67f
11:08 9 13 mph 1003.4mb 69f 66f
10:08 11 16 mph 1003.3mb 69f 66f
9:08 18 25 mph 1002.8mb 69f 64f
8:08 16 22 mph 1002mb 69f 67f
7:08 9 16 mph 1001.3mb 69f 67f
6:08 11 18 mph 1000.7mb 69f 68f
5:08 7 11 mph 1000.4mb 69f 68f
4:08 7 11 mph 1000.8mb 69f 68f
3:08 4 11 mph 1001.4mb 69f 68f
2:08 9 13 mph 1002.3mb 69f 68f
1:08 11 18 mph 1002.7mb 69f 68f
12:08 13 20 mph 1003mb 69f 67f
Seg 04/24 11:08 13 20 mph 1003.4mb 69f 67f
10:08 16 22 mph 1003.5mb 69f 67f
9:08 11 20 mph 1003.7mb 69f 68f
8:08 4 11 mph 1003.2mb 69f 66f
7:08 7 13 mph 1003.5mb 69f 66f
6:08 9 16 mph 1002.9mb 69f 67f
5:08 18 34 mph 1003.6mb 69f 68f
4:08 16 25 mph 1004.3mb 69f 68f
3:08 18 34 mph 1005.1mb 69f 68f
2:08 13 25 mph 1005.9mb 69f 69f
1:08 16 27 mph 1007mb 69f 68f
12:08 13 20 mph 1008mb 69f 68f
11:08 11 16 mph 1008.5mb 69f 67f
10:08 13 20 mph 1008.5mb 69f 67f
9:08 18 34 mph 1009.2mb 69f 69f
8:08 13 22 mph 1009mb 69f 67f
7:08 22 40 mph 1009mb 69f 67f
6:08 13 22 mph 1008.2mb 69f 70f
5:08 16 25 mph 1009.4mb 69f 70f
4:08 13 22 mph 1009.1mb 69f 69f
3:08 11 20 mph 1009.5mb 69f 68f
2:08 16 29 mph 1010mb 69f 67f
1:08 13 27 mph 1011.3mb 69f 68f
12:08 16 29 mph 1012mb 69f 67f
Dom 04/23 11:08 18 31 mph 1012.3mb 69f 67f
10:08 18 27 mph 1012.6mb 69f 67f
9:08 18 29 mph 1012.7mb 69f 66f
8:08 18 34 mph 1012.3mb 69f 66f
7:08 18 34 mph 1012.1mb 69f 66f
6:08 18 31 mph 1012.3mb 69f 66f
5:08 16 27 mph 1012.4mb 69f 67f
4:08 16 27 mph 1012.8mb 68f 67f
3:08 16 27 mph 1013.2mb 68f 66f
2:08 18 27 mph 1013.7mb 68f 66f
1:08 16 25 mph 1014.7mb 68f 66f
12:08 16 22 mph 1014.5mb 68f 65f